sensor_id;sensor_type;location;lat;lon;timestamp;pressure;altitude;pressure_sealevel;temperature;humidity
7930;BME280;4010;42.698;23.124;2023-10-31T00:01:49;118349.16;;;-140.64;91.12
7930;BME280;4010;42.698;23.124;2023-10-31T00:04:17;118349.16;;;-140.64;91.17
7930;BME280;4010;42.698;23.124;2023-10-31T00:06:44;118349.16;;;-140.64;91.06
7930;BME280;4010;42.698;23.124;2023-10-31T00:09:11;118349.16;;;-140.64;90.83
7930;BME280;4010;42.698;23.124;2023-10-31T00:11:38;118349.16;;;-140.64;91.55
7930;BME280;4010;42.698;23.124;2023-10-31T00:14:05;118349.16;;;-140.64;91.28
7930;BME280;4010;42.698;23.124;2023-10-31T00:16:31;118349.16;;;-140.64;91.85
7930;BME280;4010;42.698;23.124;2023-10-31T00:18:58;118349.16;;;-140.64;91.89
7930;BME280;4010;42.698;23.124;2023-10-31T00:21:26;118349.16;;;-140.64;91.57
7930;BME280;4010;42.698;23.124;2023-10-31T00:23:53;118349.16;;;-140.64;91.64
7930;BME280;4010;42.698;23.124;2023-10-31T00:26:19;118349.16;;;-140.64;90.92
7930;BME280;4010;42.698;23.124;2023-10-31T00:28:46;118349.16;;;-140.64;90.34
7930;BME280;4010;42.698;23.124;2023-10-31T00:31:13;118349.16;;;-140.64;90.51
7930;BME280;4010;42.698;23.124;2023-10-31T00:33:39;118349.16;;;-140.64;89.84
7930;BME280;4010;42.698;23.124;2023-10-31T00:36:07;118349.16;;;-140.64;89.68
7930;BME280;4010;42.698;23.124;2023-10-31T00:38:35;118349.16;;;-140.64;90.11
7930;BME280;4010;42.698;23.124;2023-10-31T00:41:02;118349.16;;;-140.64;90.81
7930;BME280;4010;42.698;23.124;2023-10-31T00:43:29;118349.16;;;-140.64;90.77
7930;BME280;4010;42.698;23.124;2023-10-31T00:45:56;118349.16;;;-140.64;90.17
7930;BME280;4010;42.698;23.124;2023-10-31T00:48:22;118349.16;;;-140.64;90.78
7930;BME280;4010;42.698;23.124;2023-10-31T00:50:49;118349.16;;;-140.64;90.55
7930;BME280;4010;42.698;23.124;2023-10-31T00:53:16;118349.16;;;-140.64;90.24
7930;BME280;4010;42.698;23.124;2023-10-31T00:55:44;118349.16;;;-140.64;90.88
7930;BME280;4010;42.698;23.124;2023-10-31T00:58:11;118349.16;;;-140.64;91.92
7930;BME280;4010;42.698;23.124;2023-10-31T01:00:37;118349.16;;;-140.64;92.56
7930;BME280;4010;42.698;23.124;2023-10-31T01:03:03;118349.16;;;-140.64;93.83
7930;BME280;4010;42.698;23.124;2023-10-31T01:05:30;118349.16;;;-140.64;93.34
7930;BME280;4010;42.698;23.124;2023-10-31T01:07:57;118349.16;;;-140.64;92.87
7930;BME280;4010;42.698;23.124;2023-10-31T01:10:23;118349.16;;;-140.64;93.58
7930;BME280;4010;42.698;23.124;2023-10-31T01:12:51;118349.16;;;-140.64;94.37
7930;BME280;4010;42.698;23.124;2023-10-31T01:15:18;118349.16;;;-140.64;94.34
7930;BME280;4010;42.698;23.124;2023-10-31T01:17:45;118349.16;;;-140.64;94.00
7930;BME280;4010;42.698;23.124;2023-10-31T01:20:11;118349.16;;;-140.64;93.64
7930;BME280;4010;42.698;23.124;2023-10-31T01:22:38;118349.16;;;-140.64;94.37
7930;BME280;4010;42.698;23.124;2023-10-31T01:25:06;118349.16;;;-140.64;94.46
7930;BME280;4010;42.698;23.124;2023-10-31T01:27:32;118349.16;;;-140.64;93.45
7930;BME280;4010;42.698;23.124;2023-10-31T01:30:00;118349.16;;;-140.64;92.59
7930;BME280;4010;42.698;23.124;2023-10-31T01:32:27;118349.16;;;-140.64;91.35
7930;BME280;4010;42.698;23.124;2023-10-31T01:34:54;118349.16;;;-140.64;90.15
7930;BME280;4010;42.698;23.124;2023-10-31T01:37:20;118349.16;;;-140.64;89.99
7930;BME280;4010;42.698;23.124;2023-10-31T01:39:47;118349.16;;;-140.64;89.27
7930;BME280;4010;42.698;23.124;2023-10-31T01:42:14;118349.16;;;-140.64;87.64
7930;BME280;4010;42.698;23.124;2023-10-31T01:44:41;118349.16;;;-140.64;87.50
7930;BME280;4010;42.698;23.124;2023-10-31T01:47:09;118349.16;;;-140.64;86.97
7930;BME280;4010;42.698;23.124;2023-10-31T01:49:36;118349.16;;;-140.64;86.33
7930;BME280;4010;42.698;23.124;2023-10-31T01:52:04;118349.16;;;-140.64;86.58
7930;BME280;4010;42.698;23.124;2023-10-31T01:54:32;118349.16;;;-140.64;86.24
7930;BME280;4010;42.698;23.124;2023-10-31T01:56:59;118349.16;;;-140.64;86.71
7930;BME280;4010;42.698;23.124;2023-10-31T01:59:26;118349.16;;;-140.64;86.77
7930;BME280;4010;42.698;23.124;2023-10-31T02:01:55;118349.16;;;-140.64;86.92
7930;BME280;4010;42.698;23.124;2023-10-31T02:04:23;118349.16;;;-140.64;87.55
7930;BME280;4010;42.698;23.124;2023-10-31T02:06:50;118349.16;;;-140.64;87.59
7930;BME280;4010;42.698;23.124;2023-10-31T02:09:16;118349.16;;;-140.64;88.25
7930;BME280;4010;42.698;23.124;2023-10-31T02:11:43;118349.16;;;-140.64;87.99
7930;BME280;4010;42.698;23.124;2023-10-31T02:14:10;118349.16;;;-140.64;87.99
7930;BME280;4010;42.698;23.124;2023-10-31T02:16:36;118349.16;;;-140.64;87.44
7930;BME280;4010;42.698;23.124;2023-10-31T02:19:03;118349.16;;;-140.64;86.94
7930;BME280;4010;42.698;23.124;2023-10-31T02:21:32;118349.16;;;-140.64;86.49
7930;BME280;4010;42.698;23.124;2023-10-31T02:24:01;118349.16;;;-140.64;86.28
7930;BME280;4010;42.698;23.124;2023-10-31T02:26:29;118349.16;;;-140.64;85.92
7930;BME280;4010;42.698;23.124;2023-10-31T02:28:56;118349.16;;;-140.64;85.99
7930;BME280;4010;42.698;23.124;2023-10-31T02:31:23;118349.16;;;-140.64;85.12
7930;BME280;4010;42.698;23.124;2023-10-31T02:33:49;118349.16;;;-140.64;85.84
7930;BME280;4010;42.698;23.124;2023-10-31T02:36:16;118349.16;;;-140.64;85.70
7930;BME280;4010;42.698;23.124;2023-10-31T02:38:43;118349.16;;;-140.64;87.12
7930;BME280;4010;42.698;23.124;2023-10-31T02:41:11;118349.16;;;-140.64;86.66
7930;BME280;4010;42.698;23.124;2023-10-31T02:43:39;118349.16;;;-140.64;87.33
7930;BME280;4010;42.698;23.124;2023-10-31T02:46:05;118349.16;;;-140.64;88.63
7930;BME280;4010;42.698;23.124;2023-10-31T02:48:32;118349.16;;;-140.64;89.94
7930;BME280;4010;42.698;23.124;2023-10-31T02:51:04;118349.16;;;-140.64;90.32
7930;BME280;4010;42.698;23.124;2023-10-31T02:53:31;118349.16;;;-140.64;90.44
7930;BME280;4010;42.698;23.124;2023-10-31T02:55:58;118349.16;;;-140.64;91.64
7930;BME280;4010;42.698;23.124;2023-10-31T02:58:26;118349.16;;;-140.64;92.04
7930;BME280;4010;42.698;23.124;2023-10-31T03:00:52;118349.16;;;-140.64;93.69
7930;BME280;4010;42.698;23.124;2023-10-31T03:03:19;118349.16;;;-140.64;93.43
7930;BME280;4010;42.698;23.124;2023-10-31T03:05:46;118349.16;;;-140.64;93.85
7930;BME280;4010;42.698;23.124;2023-10-31T03:08:12;118349.16;;;-140.64;94.53
7930;BME280;4010;42.698;23.124;2023-10-31T03:10:41;118349.16;;;-140.64;95.40
7930;BME280;4010;42.698;23.124;2023-10-31T03:13:07;118349.16;;;-140.64;94.68
7930;BME280;4010;42.698;23.124;2023-10-31T03:15:35;118349.16;;;-140.64;94.93
7930;BME280;4010;42.698;23.124;2023-10-31T03:18:02;118349.16;;;-140.64;95.91
7930;BME280;4010;42.698;23.124;2023-10-31T03:20:29;118349.16;;;-140.64;97.21
7930;BME280;4010;42.698;23.124;2023-10-31T03:22:56;118349.16;;;-140.64;98.44
7930;BME280;4010;42.698;23.124;2023-10-31T03:25:23;118349.16;;;-140.64;100.00
7930;BME280;4010;42.698;23.124;2023-10-31T03:27:49;118349.16;;;-140.64;99.50
7930;BME280;4010;42.698;23.124;2023-10-31T03:30:16;118349.16;;;-140.64;99.38
7930;BME280;4010;42.698;23.124;2023-10-31T03:32:44;118349.16;;;-140.64;99.20
7930;BME280;4010;42.698;23.124;2023-10-31T03:35:11;118349.16;;;-140.64;99.23
7930;BME280;4010;42.698;23.124;2023-10-31T03:37:38;118349.16;;;-140.64;99.36
7930;BME280;4010;42.698;23.124;2023-10-31T03:40:07;118349.16;;;-140.64;99.62
7930;BME280;4010;42.698;23.124;2023-10-31T03:42:34;118349.16;;;-140.64;99.97
7930;BME280;4010;42.698;23.124;2023-10-31T03:45:01;118349.16;;;-140.64;100.00
7930;BME280;4010;42.698;23.124;2023-10-31T03:47:28;118349.16;;;-140.64;100.00
7930;BME280;4010;42.698;23.124;2023-10-31T03:49:56;118349.16;;;-140.64;100.00
7930;BME280;4010;42.698;23.124;2023-10-31T03:52:22;118349.16;;;-140.64;100.00
7930;BME280;4010;42.698;23.124;2023-10-31T03:54:49;118349.16;;;-140.64;100.00
7930;BME280;4010;42.698;23.124;2023-10-31T03:57:16;118349.16;;;-140.64;100.00
7930;BME280;4010;42.698;23.124;2023-10-31T03:59:42;118349.16;;;-140.64;100.00
7930;BME280;4010;42.698;23.124;2023-10-31T04:02:09;118349.16;;;-140.64;100.00
7930;BME280;4010;42.698;23.124;2023-10-31T04:04:36;118349.16;;;-140.64;100.00
7930;BME280;4010;42.698;23.124;2023-10-31T04:07:04;118349.16;;;-140.64;100.00
7930;BME280;4010;42.698;23.124;2023-10-31T04:09:30;118349.16;;;-140.64;100.00
7930;BME280;4010;42.698;23.124;2023-10-31T04:11:57;118349.16;;;-140.64;100.00
7930;BME280;4010;42.698;23.124;2023-10-31T04:14:24;118349.16;;;-140.64;100.00
7930;BME280;4010;42.698;23.124;2023-10-31T04:16:50;118349.16;;;-140.64;100.00
7930;BME280;4010;42.698;23.124;2023-10-31T04:19:17;118349.16;;;-140.64;100.00
7930;BME280;4010;42.698;23.124;2023-10-31T04:21:44;118349.16;;;-140.64;100.00
7930;BME280;4010;42.698;23.124;2023-10-31T04:24:12;118349.16;;;-140.64;100.00
7930;BME280;4010;42.698;23.124;2023-10-31T04:26:40;118349.16;;;-140.64;100.00
7930;BME280;4010;42.698;23.124;2023-10-31T04:29:06;118349.16;;;-140.64;100.00
7930;BME280;4010;42.698;23.124;2023-10-31T04:31:33;118349.16;;;-140.64;100.00
7930;BME280;4010;42.698;23.124;2023-10-31T04:34:00;118349.16;;;-140.64;100.00
7930;BME280;4010;42.698;23.124;2023-10-31T04:36:26;118349.16;;;-140.64;100.00
7930;BME280;4010;42.698;23.124;2023-10-31T04:38:53;118349.16;;;-140.64;100.00
7930;BME280;4010;42.698;23.124;2023-10-31T04:41:21;118349.16;;;-140.64;100.00
7930;BME280;4010;42.698;23.124;2023-10-31T04:43:48;118349.16;;;-140.64;100.00
7930;BME280;4010;42.698;23.124;2023-10-31T04:46:15;118349.16;;;-140.64;100.00
7930;BME280;4010;42.698;23.124;2023-10-31T04:48:42;118349.16;;;-140.64;100.00
7930;BME280;4010;42.698;23.124;2023-10-31T04:51:08;118349.16;;;-140.64;100.00
7930;BME280;4010;42.698;23.124;2023-10-31T04:53:35;118349.16;;;-140.64;100.00
7930;BME280;4010;42.698;23.124;2023-10-31T04:56:02;118349.16;;;-140.64;100.00
7930;BME280;4010;42.698;23.124;2023-10-31T04:58:30;118349.16;;;-140.64;100.00
7930;BME280;4010;42.698;23.124;2023-10-31T05:00:57;118349.16;;;-140.64;100.00
7930;BME280;4010;42.698;23.124;2023-10-31T05:03:23;118349.16;;;-140.64;100.00
7930;BME280;4010;42.698;23.124;2023-10-31T05:05:50;118349.16;;;-140.64;100.00
7930;BME280;4010;42.698;23.124;2023-10-31T05:08:17;118349.16;;;-140.64;100.00
7930;BME280;4010;42.698;23.124;2023-10-31T05:10:43;118349.16;;;-140.64;100.00
7930;BME280;4010;42.698;23.124;2023-10-31T05:13:12;118349.16;;;-140.64;100.00
7930;BME280;4010;42.698;23.124;2023-10-31T05:15:40;118349.16;;;-140.64;100.00
7930;BME280;4010;42.698;23.124;2023-10-31T05:18:07;118349.16;;;-140.64;100.00
7930;BME280;4010;42.698;23.124;2023-10-31T05:20:34;118349.16;;;-140.64;100.00
7930;BME280;4010;42.698;23.124;2023-10-31T05:23:00;118349.16;;;-140.64;100.00
7930;BME280;4010;42.698;23.124;2023-10-31T05:25:27;118349.16;;;-140.64;100.00
7930;BME280;4010;42.698;23.124;2023-10-31T05:27:54;118349.16;;;-140.64;100.00
7930;BME280;4010;42.698;23.124;2023-10-31T05:30:21;118349.16;;;-140.64;100.00
7930;BME280;4010;42.698;23.124;2023-10-31T05:32:49;118349.16;;;-140.64;100.00
7930;BME280;4010;42.698;23.124;2023-10-31T05:35:16;118349.16;;;-140.64;100.00
7930;BME280;4010;42.698;23.124;2023-10-31T05:37:42;118349.16;;;-140.64;100.00
7930;BME280;4010;42.698;23.124;2023-10-31T05:40:10;118349.16;;;-140.64;100.00
7930;BME280;4010;42.698;23.124;2023-10-31T05:42:37;118349.16;;;-140.64;100.00
7930;BME280;4010;42.698;23.124;2023-10-31T05:45:05;118349.16;;;-140.64;100.00
7930;BME280;4010;42.698;23.124;2023-10-31T05:47:31;118349.16;;;-140.64;100.00
7930;BME280;4010;42.698;23.124;2023-10-31T05:50:00;118349.16;;;-140.64;100.00
7930;BME280;4010;42.698;23.124;2023-10-31T05:52:28;118349.16;;;-140.64;100.00
7930;BME280;4010;42.698;23.124;2023-10-31T05:54:55;118349.16;;;-140.64;100.00
7930;BME280;4010;42.698;23.124;2023-10-31T05:57:21;118349.16;;;-140.64;100.00
7930;BME280;4010;42.698;23.124;2023-10-31T05:59:48;118349.16;;;-140.64;100.00
7930;BME280;4010;42.698;23.124;2023-10-31T06:02:15;118349.16;;;-140.64;100.00
7930;BME280;4010;42.698;23.124;2023-10-31T06:04:41;118349.16;;;-140.64;100.00
7930;BME280;4010;42.698;23.124;2023-10-31T06:07:10;118349.16;;;-140.64;100.00
7930;BME280;4010;42.698;23.124;2023-10-31T06:09:37;118349.16;;;-140.64;100.00
7930;BME280;4010;42.698;23.124;2023-10-31T06:12:04;118349.16;;;-140.64;100.00
7930;BME280;4010;42.698;23.124;2023-10-31T06:14:31;118349.16;;;-140.64;99.27
7930;BME280;4010;42.698;23.124;2023-10-31T06:16:58;118349.16;;;-140.64;100.00
7930;BME280;4010;42.698;23.124;2023-10-31T06:19:26;118349.16;;;-140.64;98.44
7930;BME280;4010;42.698;23.124;2023-10-31T06:21:53;118349.16;;;-140.64;98.20
7930;BME280;4010;42.698;23.124;2023-10-31T06:24:21;118349.16;;;-140.64;96.42
7930;BME280;4010;42.698;23.124;2023-10-31T06:26:47;118349.16;;;-140.64;95.79
7930;BME280;4010;42.698;23.124;2023-10-31T06:29:14;118349.16;;;-140.64;94.13
7930;BME280;4010;42.698;23.124;2023-10-31T06:31:41;118349.16;;;-140.64;92.93
7930;BME280;4010;42.698;23.124;2023-10-31T06:34:07;118349.16;;;-140.64;91.91
7930;BME280;4010;42.698;23.124;2023-10-31T06:36:34;118349.16;;;-140.64;91.02
7930;BME280;4010;42.698;23.124;2023-10-31T06:39:01;118349.16;;;-140.64;90.48
7930;BME280;4010;42.698;23.124;2023-10-31T06:41:29;118349.16;;;-140.64;89.57
7930;BME280;4010;42.698;23.124;2023-10-31T06:43:55;118349.16;;;-140.64;88.53
7930;BME280;4010;42.698;23.124;2023-10-31T06:46:22;118349.16;;;-140.64;88.81
7930;BME280;4010;42.698;23.124;2023-10-31T06:48:49;118349.16;;;-140.64;89.14
7930;BME280;4010;42.698;23.124;2023-10-31T06:51:15;118349.16;;;-140.64;87.62
7930;BME280;4010;42.698;23.124;2023-10-31T06:53:42;118349.16;;;-140.64;88.19
7930;BME280;4010;42.698;23.124;2023-10-31T06:56:09;118349.16;;;-140.64;87.52
7930;BME280;4010;42.698;23.124;2023-10-31T06:58:37;118349.16;;;-140.64;88.86
7930;BME280;4010;42.698;23.124;2023-10-31T07:01:04;118349.16;;;-140.64;85.56
7930;BME280;4010;42.698;23.124;2023-10-31T07:03:30;118349.16;;;-140.64;85.02
7930;BME280;4010;42.698;23.124;2023-10-31T07:05:58;118349.16;;;-140.64;84.19
7930;BME280;4010;42.698;23.124;2023-10-31T07:08:24;118349.16;;;-140.64;84.30
7930;BME280;4010;42.698;23.124;2023-10-31T07:10:51;118349.16;;;-140.64;83.02
7930;BME280;4010;42.698;23.124;2023-10-31T07:13:18;118349.16;;;-140.64;81.67
7930;BME280;4010;42.698;23.124;2023-10-31T07:15:46;118349.16;;;-140.64;80.25
7930;BME280;4010;42.698;23.124;2023-10-31T07:18:12;118349.16;;;-140.64;81.65
7930;BME280;4010;42.698;23.124;2023-10-31T07:20:39;118349.16;;;-140.64;79.72
7930;BME280;4010;42.698;23.124;2023-10-31T07:23:06;118349.16;;;-140.64;81.39
7930;BME280;4010;42.698;23.124;2023-10-31T07:25:32;118349.16;;;-140.64;79.36
7930;BME280;4010;42.698;23.124;2023-10-31T07:27:59;118349.16;;;-140.64;78.65
7930;BME280;4010;42.698;23.124;2023-10-31T07:30:26;118349.16;;;-140.64;78.82
7930;BME280;4010;42.698;23.124;2023-10-31T07:32:54;118349.16;;;-140.64;78.92
7930;BME280;4010;42.698;23.124;2023-10-31T07:35:21;118349.16;;;-140.64;78.47
7930;BME280;4010;42.698;23.124;2023-10-31T07:37:48;118349.16;;;-140.64;79.51
7930;BME280;4010;42.698;23.124;2023-10-31T07:40:15;118349.16;;;-140.64;78.37
7930;BME280;4010;42.698;23.124;2023-10-31T07:42:41;118349.16;;;-140.64;79.66
7930;BME280;4010;42.698;23.124;2023-10-31T07:45:09;118349.16;;;-140.64;79.08
7930;BME280;4010;42.698;23.124;2023-10-31T07:47:36;118349.16;;;-140.64;78.14
7930;BME280;4010;42.698;23.124;2023-10-31T07:50:04;118349.16;;;-140.64;76.81
7930;BME280;4010;42.698;23.124;2023-10-31T07:52:31;118349.16;;;-140.64;77.74
7930;BME280;4010;42.698;23.124;2023-10-31T07:54:58;118349.16;;;-140.64;78.50
7930;BME280;4010;42.698;23.124;2023-10-31T07:57:24;118349.16;;;-140.64;77.72
7930;BME280;4010;42.698;23.124;2023-10-31T07:59:51;118349.16;;;-140.64;77.02
7930;BME280;4010;42.698;23.124;2023-10-31T08:02:18;118349.16;;;-140.64;77.39
7930;BME280;4010;42.698;23.124;2023-10-31T08:04:44;118349.16;;;-140.64;77.47
7930;BME280;4010;42.698;23.124;2023-10-31T08:07:13;118349.16;;;-140.64;77.08
7930;BME280;4010;42.698;23.124;2023-10-31T08:09:39;118349.16;;;-140.64;75.30
7930;BME280;4010;42.698;23.124;2023-10-31T08:12:06;118349.16;;;-140.64;75.42
7930;BME280;4010;42.698;23.124;2023-10-31T08:14:33;118349.16;;;-140.64;75.18
7930;BME280;4010;42.698;23.124;2023-10-31T08:17:00;118349.16;;;-140.64;73.46
7930;BME280;4010;42.698;23.124;2023-10-31T08:19:26;118349.16;;;-140.64;73.53
7930;BME280;4010;42.698;23.124;2023-10-31T08:21:53;118349.16;;;-140.64;72.93
7930;BME280;4010;42.698;23.124;2023-10-31T08:24:21;118349.16;;;-140.64;73.45
7930;BME280;4010;42.698;23.124;2023-10-31T08:26:48;118349.16;;;-140.64;72.79
7930;BME280;4010;42.698;23.124;2023-10-31T08:29:14;118349.16;;;-140.64;72.70
7930;BME280;4010;42.698;23.124;2023-10-31T08:31:41;118349.16;;;-140.64;71.73
7930;BME280;4010;42.698;23.124;2023-10-31T08:34:08;118349.16;;;-140.64;71.15
7930;BME280;4010;42.698;23.124;2023-10-31T08:36:35;118349.16;;;-140.64;71.47
7930;BME280;4010;42.698;23.124;2023-10-31T08:39:02;118349.16;;;-140.64;70.77
7930;BME280;4010;42.698;23.124;2023-10-31T08:41:31;118349.16;;;-140.64;70.70
7930;BME280;4010;42.698;23.124;2023-10-31T08:43:57;118349.16;;;-140.64;69.90
7930;BME280;4010;42.698;23.124;2023-10-31T08:46:25;118349.16;;;-140.64;70.07
7930;BME280;4010;42.698;23.124;2023-10-31T08:48:51;118349.16;;;-140.64;66.54
7930;BME280;4010;42.698;23.124;2023-10-31T08:51:18;118349.16;;;-140.64;60.55
7930;BME280;4010;42.698;23.124;2023-10-31T08:53:45;118349.16;;;-140.64;64.47
7930;BME280;4010;42.698;23.124;2023-10-31T08:56:11;118349.16;;;-140.64;63.64
7930;BME280;4010;42.698;23.124;2023-10-31T08:58:39;118349.16;;;-140.64;63.30
7930;BME280;4010;42.698;23.124;2023-10-31T09:01:06;118349.16;;;-140.64;59.59
7930;BME280;4010;42.698;23.124;2023-10-31T09:03:33;118349.16;;;-140.64;58.88
7930;BME280;4010;42.698;23.124;2023-10-31T09:05:59;118349.16;;;-140.64;57.55
7930;BME280;4010;42.698;23.124;2023-10-31T09:08:27;118349.16;;;-140.64;57.20
7930;BME280;4010;42.698;23.124;2023-10-31T09:10:54;118349.16;;;-140.64;54.43
7930;BME280;4010;42.698;23.124;2023-10-31T09:13:20;118349.16;;;-140.64;54.85
7930;BME280;4010;42.698;23.124;2023-10-31T09:15:49;118349.16;;;-140.64;53.46
7930;BME280;4010;42.698;23.124;2023-10-31T09:18:16;118349.16;;;-140.64;53.27
7930;BME280;4010;42.698;23.124;2023-10-31T09:20:43;118349.16;;;-140.64;49.88
7930;BME280;4010;42.698;23.124;2023-10-31T09:23:09;118349.16;;;-140.64;45.69
7930;BME280;4010;42.698;23.124;2023-10-31T09:25:36;118349.16;;;-140.64;40.63
7930;BME280;4010;42.698;23.124;2023-10-31T09:28:03;118349.16;;;-140.64;38.26
7930;BME280;4010;42.698;23.124;2023-10-31T09:30:29;118349.16;;;-140.64;38.10
7930;BME280;4010;42.698;23.124;2023-10-31T09:32:58;118349.16;;;-140.64;37.42
7930;BME280;4010;42.698;23.124;2023-10-31T09:35:25;118349.16;;;-140.64;36.80
7930;BME280;4010;42.698;23.124;2023-10-31T09:37:52;118349.16;;;-140.64;36.83
7930;BME280;4010;42.698;23.124;2023-10-31T09:40:19;118349.16;;;-140.64;35.95
7930;BME280;4010;42.698;23.124;2023-10-31T09:42:47;118349.16;;;-140.64;35.88
7930;BME280;4010;42.698;23.124;2023-10-31T09:45:15;118349.16;;;-140.64;35.13
7930;BME280;4010;42.698;23.124;2023-10-31T09:47:41;118349.16;;;-140.64;34.61
7930;BME280;4010;42.698;23.124;2023-10-31T09:50:10;118349.16;;;-140.64;34.94
7930;BME280;4010;42.698;23.124;2023-10-31T09:52:37;118349.16;;;-140.64;34.38
7930;BME280;4010;42.698;23.124;2023-10-31T09:55:05;118349.16;;;-140.64;34.50
7930;BME280;4010;42.698;23.124;2023-10-31T09:57:32;118349.16;;;-140.64;33.42
7930;BME280;4010;42.698;23.124;2023-10-31T09:59:59;118349.16;;;-140.64;33.69
7930;BME280;4010;42.698;23.124;2023-10-31T10:02:25;118349.16;;;-140.64;33.74
7930;BME280;4010;42.698;23.124;2023-10-31T10:04:52;118349.16;;;-140.64;33.61
7930;BME280;4010;42.698;23.124;2023-10-31T10:07:20;118349.16;;;-140.64;32.87
7930;BME280;4010;42.698;23.124;2023-10-31T10:09:47;118349.16;;;-140.64;34.04
7930;BME280;4010;42.698;23.124;2023-10-31T10:12:15;118349.16;;;-140.64;33.71
7930;BME280;4010;42.698;23.124;2023-10-31T10:14:44;118349.16;;;-140.64;34.63
7930;BME280;4010;42.698;23.124;2023-10-31T10:17:16;118349.16;;;-140.64;31.90
7930;BME280;4010;42.698;23.124;2023-10-31T10:19:42;118349.16;;;-140.64;32.11
7930;BME280;4010;42.698;23.124;2023-10-31T10:22:09;118349.16;;;-140.64;33.37
7930;BME280;4010;42.698;23.124;2023-10-31T10:24:40;118349.16;;;-140.64;31.23
7930;BME280;4010;42.698;23.124;2023-10-31T10:27:07;118349.16;;;-140.64;31.28
7930;BME280;4010;42.698;23.124;2023-10-31T10:29:34;118349.16;;;-140.64;31.04
7930;BME280;4010;42.698;23.124;2023-10-31T10:32:05;118349.16;;;-140.64;32.27
7930;BME280;4010;42.698;23.124;2023-10-31T10:34:33;118349.16;;;-140.64;31.54
7930;BME280;4010;42.698;23.124;2023-10-31T10:37:01;118349.16;;;-140.64;31.72
7930;BME280;4010;42.698;23.124;2023-10-31T10:39:32;118349.16;;;-140.64;31.08
7930;BME280;4010;42.698;23.124;2023-10-31T10:42:04;118349.16;;;-140.64;31.45
7930;BME280;4010;42.698;23.124;2023-10-31T10:44:35;118349.16;;;-140.64;30.98
7930;BME280;4010;42.698;23.124;2023-10-31T10:47:05;118349.16;;;-140.64;31.39
7930;BME280;4010;42.698;23.124;2023-10-31T10:49:36;118349.16;;;-140.64;30.00
7930;BME280;4010;42.698;23.124;2023-10-31T10:52:14;118349.16;;;-140.64;29.36
7930;BME280;4010;42.698;23.124;2023-10-31T10:54:45;118349.16;;;-140.64;29.40
7930;BME280;4010;42.698;23.124;2023-10-31T10:57:20;118349.16;;;-140.64;29.35
7930;BME280;4010;42.698;23.124;2023-10-31T10:59:49;118349.16;;;-140.64;29.53
7930;BME280;4010;42.698;23.124;2023-10-31T11:02:19;118349.16;;;-140.64;28.80
7930;BME280;4010;42.698;23.124;2023-10-31T11:04:47;118349.16;;;-140.64;28.63
7930;BME280;4010;42.698;23.124;2023-10-31T11:07:15;118349.16;;;-140.64;29.31
7930;BME280;4010;42.698;23.124;2023-10-31T11:09:44;118349.16;;;-140.64;29.07
7930;BME280;4010;42.698;23.124;2023-10-31T11:12:12;118349.16;;;-140.64;29.16
7930;BME280;4010;42.698;23.124;2023-10-31T11:14:41;118349.16;;;-140.64;29.35
7930;BME280;4010;42.698;23.124;2023-10-31T11:17:13;118349.16;;;-140.64;29.08
7930;BME280;4010;42.698;23.124;2023-10-31T11:19:42;118349.16;;;-140.64;29.03
7930;BME280;4010;42.698;23.124;2023-10-31T11:22:10;118349.16;;;-140.64;29.11
7930;BME280;4010;42.698;23.124;2023-10-31T11:24:37;118349.16;;;-140.64;29.45
7930;BME280;4010;42.698;23.124;2023-10-31T11:27:06;118349.16;;;-140.64;29.99
7930;BME280;4010;42.698;23.124;2023-10-31T11:29:33;118349.16;;;-140.64;29.38
7930;BME280;4010;42.698;23.124;2023-10-31T11:32:01;118349.16;;;-140.64;29.24
7930;BME280;4010;42.698;23.124;2023-10-31T11:34:29;118349.16;;;-140.64;28.84
7930;BME280;4010;42.698;23.124;2023-10-31T11:37:23;118349.16;;;-140.64;29.71
7930;BME280;4010;42.698;23.124;2023-10-31T11:40:22;118349.16;;;-140.64;29.21
7930;BME280;4010;42.698;23.124;2023-10-31T11:42:50;118349.16;;;-140.64;28.42
7930;BME280;4010;42.698;23.124;2023-10-31T11:45:27;118349.16;;;-140.64;28.76
7930;BME280;4010;42.698;23.124;2023-10-31T11:47:55;118349.16;;;-140.64;28.77
7930;BME280;4010;42.698;23.124;2023-10-31T11:50:22;118349.16;;;-140.64;27.91
7930;BME280;4010;42.698;23.124;2023-10-31T11:53:04;118349.16;;;-140.64;27.89
7930;BME280;4010;42.698;23.124;2023-10-31T11:55:33;118349.16;;;-140.64;29.01
7930;BME280;4010;42.698;23.124;2023-10-31T11:58:18;118349.16;;;-140.64;30.08
7930;BME280;4010;42.698;23.124;2023-10-31T12:00:46;118349.16;;;-140.64;29.11
7930;BME280;4010;42.698;23.124;2023-10-31T12:03:15;118349.16;;;-140.64;29.52
7930;BME280;4010;42.698;23.124;2023-10-31T12:05:50;118349.16;;;-140.64;29.74
7930;BME280;4010;42.698;23.124;2023-10-31T12:08:24;118349.16;;;-140.64;30.22
7930;BME280;4010;42.698;23.124;2023-10-31T12:10:51;118349.16;;;-140.64;29.82
7930;BME280;4010;42.698;23.124;2023-10-31T12:13:18;118349.16;;;-140.64;30.45
7930;BME280;4010;42.698;23.124;2023-10-31T12:15:51;118349.16;;;-140.64;29.53
7930;BME280;4010;42.698;23.124;2023-10-31T12:18:19;118349.16;;;-140.64;30.11
7930;BME280;4010;42.698;23.124;2023-10-31T12:20:49;118349.16;;;-140.64;29.55
7930;BME280;4010;42.698;23.124;2023-10-31T12:23:17;118349.16;;;-140.64;29.43
7930;BME280;4010;42.698;23.124;2023-10-31T12:25:47;118349.16;;;-140.64;30.01
7930;BME280;4010;42.698;23.124;2023-10-31T12:28:17;118349.16;;;-140.64;31.40
7930;BME280;4010;42.698;23.124;2023-10-31T12:30:45;118349.16;;;-140.64;32.16
7930;BME280;4010;42.698;23.124;2023-10-31T12:33:13;118349.16;;;-140.64;31.34
7930;BME280;4010;42.698;23.124;2023-10-31T12:35:41;118349.16;;;-140.64;31.12
7930;BME280;4010;42.698;23.124;2023-10-31T12:38:10;118349.16;;;-140.64;30.40
7930;BME280;4010;42.698;23.124;2023-10-31T12:40:38;118349.16;;;-140.64;31.55